sensor_id;sensor_type;location;lat;lon;timestamp;temperature;humidity
41668;DHT22;27356;50.920;5.350;2022-07-18T04:26:03;16.80;96.30
41668;DHT22;27356;50.920;5.350;2022-07-18T04:28:29;17.50;94.60
41668;DHT22;27356;50.920;5.350;2022-07-18T04:30:54;18.00;93.60
41668;DHT22;27356;50.920;5.350;2022-07-18T04:33:20;18.30;92.40
41668;DHT22;27356;50.920;5.350;2022-07-18T04:35:46;18.60;91.50
41668;DHT22;27356;50.920;5.350;2022-07-18T04:38:12;18.90;90.40
41668;DHT22;27356;50.920;5.350;2022-07-18T04:40:38;19.30;88.80
41668;DHT22;27356;50.920;5.350;2022-07-18T04:43:03;19.50;87.20
41668;DHT22;27356;50.920;5.350;2022-07-18T04:45:29;19.60;87.60
41668;DHT22;27356;50.920;5.350;2022-07-18T04:47:55;19.80;86.70
41668;DHT22;27356;50.920;5.350;2022-07-18T04:50:21;20.10;85.30
41668;DHT22;27356;50.920;5.350;2022-07-18T04:52:47;20.50;83.80
41668;DHT22;27356;50.920;5.350;2022-07-18T04:55:13;21.00;81.70
41668;DHT22;27356;50.920;5.350;2022-07-18T04:57:39;21.60;79.70
41668;DHT22;27356;50.920;5.350;2022-07-18T05:00:06;21.90;78.50
41668;DHT22;27356;50.920;5.350;2022-07-18T05:02:32;22.60;76.70
41668;DHT22;27356;50.920;5.350;2022-07-18T05:04:57;23.20;75.00
41668;DHT22;27356;50.920;5.350;2022-07-18T05:07:23;23.40;73.60
41668;DHT22;27356;50.920;5.350;2022-07-18T05:09:48;23.60;73.20
41668;DHT22;27356;50.920;5.350;2022-07-18T05:12:14;23.50;73.30
41668;DHT22;27356;50.920;5.350;2022-07-18T05:14:39;23.60;73.00
41668;DHT22;27356;50.920;5.350;2022-07-18T05:17:05;23.20;73.90
41668;DHT22;27356;50.920;5.350;2022-07-18T05:19:30;23.90;72.80
41668;DHT22;27356;50.920;5.350;2022-07-18T05:21:56;24.50;71.10
41668;DHT22;27356;50.920;5.350;2022-07-18T05:24:21;25.40;69.10
41668;DHT22;27356;50.920;5.350;2022-07-18T05:26:47;26.30;67.30
41668;DHT22;27356;50.920;5.350;2022-07-18T05:29:13;26.90;66.70
41668;DHT22;27356;50.920;5.350;2022-07-18T05:31:39;27.20;65.70
41668;DHT22;27356;50.920;5.350;2022-07-18T05:34:05;27.50;64.70
41668;DHT22;27356;50.920;5.350;2022-07-18T05:36:31;28.00;64.00
41668;DHT22;27356;50.920;5.350;2022-07-18T05:38:56;28.40;63.20
41668;DHT22;27356;50.920;5.350;2022-07-18T05:41:22;28.80;62.70
41668;DHT22;27356;50.920;5.350;2022-07-18T05:43:48;29.60;61.60
41668;DHT22;27356;50.920;5.350;2022-07-18T05:46:13;30.30;60.40
41668;DHT22;27356;50.920;5.350;2022-07-18T05:48:39;30.60;59.50
41668;DHT22;27356;50.920;5.350;2022-07-18T05:51:05;31.20;58.60
41668;DHT22;27356;50.920;5.350;2022-07-18T05:53:31;31.20;58.00
41668;DHT22;27356;50.920;5.350;2022-07-18T05:55:56;31.20;58.00
41668;DHT22;27356;50.920;5.350;2022-07-18T05:58:22;31.60;57.50
41668;DHT22;27356;50.920;5.350;2022-07-18T06:00:48;31.50;57.80
41668;DHT22;27356;50.920;5.350;2022-07-18T06:03:14;31.60;57.50
41668;DHT22;27356;50.920;5.350;2022-07-18T06:05:39;31.50;57.70
41668;DHT22;27356;50.920;5.350;2022-07-18T06:08:05;31.10;58.60
41668;DHT22;27356;50.920;5.350;2022-07-18T06:10:31;30.90;59.20
41668;DHT22;27356;50.920;5.350;2022-07-18T06:12:56;30.50;59.00
41668;DHT22;27356;50.920;5.350;2022-07-18T06:15:22;30.40;59.00
41668;DHT22;27356;50.920;5.350;2022-07-18T06:17:48;30.70;58.50
41668;DHT22;27356;50.920;5.350;2022-07-18T06:20:13;31.00;58.00
41668;DHT22;27356;50.920;5.350;2022-07-18T06:22:39;31.50;57.30
41668;DHT22;27356;50.920;5.350;2022-07-18T06:25:05;32.00;56.80
41668;DHT22;27356;50.920;5.350;2022-07-18T06:27:30;32.00;56.30
41668;DHT22;27356;50.920;5.350;2022-07-18T06:29:56;32.20;56.40
41668;DHT22;27356;50.920;5.350;2022-07-18T06:32:23;32.10;55.80
41668;DHT22;27356;50.920;5.350;2022-07-18T06:34:49;32.30;55.20
41668;DHT22;27356;50.920;5.350;2022-07-18T06:37:14;32.30;54.60
41668;DHT22;27356;50.920;5.350;2022-07-18T06:39:40;32.60;53.90
41668;DHT22;27356;50.920;5.350;2022-07-18T06:42:05;32.30;54.60
41668;DHT22;27356;50.920;5.350;2022-07-18T06:44:31;32.00;54.60
41668;DHT22;27356;50.920;5.350;2022-07-18T06:46:56;31.30;55.10
41668;DHT22;27356;50.920;5.350;2022-07-18T06:49:25;30.80;56.00
41668;DHT22;27356;50.920;5.350;2022-07-18T06:51:51;31.40;55.80
41668;DHT22;27356;50.920;5.350;2022-07-18T06:54:16;32.20;55.20
41668;DHT22;27356;50.920;5.350;2022-07-18T06:56:42;32.60;54.50
41668;DHT22;27356;50.920;5.350;2022-07-18T06:59:07;32.60;55.00
41668;DHT22;27356;50.920;5.350;2022-07-18T07:01:33;32.90;54.80
41668;DHT22;27356;50.920;5.350;2022-07-18T07:03:58;33.40;54.00
41668;DHT22;27356;50.920;5.350;2022-07-18T07:06:24;33.70;53.70
41668;DHT22;27356;50.920;5.350;2022-07-18T07:08:49;34.80;53.00
41668;DHT22;27356;50.920;5.350;2022-07-18T07:11:15;35.40;52.50
41668;DHT22;27356;50.920;5.350;2022-07-18T07:13:41;36.30;51.60
41668;DHT22;27356;50.920;5.350;2022-07-18T07:16:06;36.80;51.50
41668;DHT22;27356;50.920;5.350;2022-07-18T07:18:32;36.90;50.80
41668;DHT22;27356;50.920;5.350;2022-07-18T07:20:58;36.40;51.10
41668;DHT22;27356;50.920;5.350;2022-07-18T07:23:23;35.60;52.30
41668;DHT22;27356;50.920;5.350;2022-07-18T07:25:49;35.70;52.20
41668;DHT22;27356;50.920;5.350;2022-07-18T07:28:15;35.90;52.30
41668;DHT22;27356;50.920;5.350;2022-07-18T07:30:40;36.30;51.70
41668;DHT22;27356;50.920;5.350;2022-07-18T07:33:07;35.60;53.10
41668;DHT22;27356;50.920;5.350;2022-07-18T07:35:32;37.20;52.30
41668;DHT22;27356;50.920;5.350;2022-07-18T07:37:58;37.20;51.50
41668;DHT22;27356;50.920;5.350;2022-07-18T07:40:24;37.00;51.80
41668;DHT22;27356;50.920;5.350;2022-07-18T07:42:51;36.70;52.10
41668;DHT22;27356;50.920;5.350;2022-07-18T07:45:17;38.00;51.40
41668;DHT22;27356;50.920;5.350;2022-07-18T07:47:43;39.10;50.20
41668;DHT22;27356;50.920;5.350;2022-07-18T07:50:09;38.90;50.10
41668;DHT22;27356;50.920;5.350;2022-07-18T07:52:35;39.20;50.10
41668;DHT22;27356;50.920;5.350;2022-07-18T07:55:00;39.60;49.40
41668;DHT22;27356;50.920;5.350;2022-07-18T07:57:26;38.80;49.90
41668;DHT22;27356;50.920;5.350;2022-07-18T07:59:52;38.70;49.40
41668;DHT22;27356;50.920;5.350;2022-07-18T08:02:17;38.70;50.10
41668;DHT22;27356;50.920;5.350;2022-07-18T08:04:53;38.20;50.40
41668;DHT22;27356;50.920;5.350;2022-07-18T08:07:18;37.80;51.30
41668;DHT22;27356;50.920;5.350;2022-07-18T08:09:45;38.30;50.90
41668;DHT22;27356;50.920;5.350;2022-07-18T08:12:11;38.70;50.10
41668;DHT22;27356;50.920;5.350;2022-07-18T08:14:36;39.50;49.50
41668;DHT22;27356;50.920;5.350;2022-07-18T08:17:05;39.30;49.50
41668;DHT22;27356;50.920;5.350;2022-07-18T08:19:31;40.00;49.30
41668;DHT22;27356;50.920;5.350;2022-07-18T08:21:57;40.80;48.60
41668;DHT22;27356;50.920;5.350;2022-07-18T08:24:22;41.30;48.10
41668;DHT22;27356;50.920;5.350;2022-07-18T08:26:48;41.40;48.20
41668;DHT22;27356;50.920;5.350;2022-07-18T08:29:13;42.00;47.80
41668;DHT22;27356;50.920;5.350;2022-07-18T08:31:39;42.20;47.00
41668;DHT22;27356;50.920;5.350;2022-07-18T08:34:04;41.40;47.20
41668;DHT22;27356;50.920;5.350;2022-07-18T08:36:30;41.10;47.70
41668;DHT22;27356;50.920;5.350;2022-07-18T08:38:56;39.80;48.10
41668;DHT22;27356;50.920;5.350;2022-07-18T08:41:22;40.90;47.10
41668;DHT22;27356;50.920;5.350;2022-07-18T08:43:49;40.80;47.20
41668;DHT22;27356;50.920;5.350;2022-07-18T08:46:15;41.30;46.60
41668;DHT22;27356;50.920;5.350;2022-07-18T08:48:43;42.10;46.50
41668;DHT22;27356;50.920;5.350;2022-07-18T08:51:09;41.90;46.30
41668;DHT22;27356;50.920;5.350;2022-07-18T08:53:35;41.80;46.30
41668;DHT22;27356;50.920;5.350;2022-07-18T08:56:03;41.30;45.30
41668;DHT22;27356;50.920;5.350;2022-07-18T08:58:28;41.30;45.60
41668;DHT22;27356;50.920;5.350;2022-07-18T09:00:54;41.40;45.50
41668;DHT22;27356;50.920;5.350;2022-07-18T09:03:20;42.60;45.30
41668;DHT22;27356;50.920;5.350;2022-07-18T09:05:45;43.60;44.90
41668;DHT22;27356;50.920;5.350;2022-07-18T09:08:12;44.40;43.70
41668;DHT22;27356;50.920;5.350;2022-07-18T09:10:48;44.40;43.10
41668;DHT22;27356;50.920;5.350;2022-07-18T09:13:15;43.80;43.30
41668;DHT22;27356;50.920;5.350;2022-07-18T09:16:05;44.00;43.60
41668;DHT22;27356;50.920;5.350;2022-07-18T09:18:38;44.30;43.20
41668;DHT22;27356;50.920;5.350;2022-07-18T09:21:08;44.50;42.30
41668;DHT22;27356;50.920;5.350;2022-07-18T09:23:34;44.00;43.20
41668;DHT22;27356;50.920;5.350;2022-07-18T09:26:00;44.10;43.00
41668;DHT22;27356;50.920;5.350;2022-07-18T09:28:30;43.80;42.60
41668;DHT22;27356;50.920;5.350;2022-07-18T09:31:20;43.90;42.90
41668;DHT22;27356;50.920;5.350;2022-07-18T09:33:56;43.00;43.30
41668;DHT22;27356;50.920;5.350;2022-07-18T09:36:22;43.20;43.10
41668;DHT22;27356;50.920;5.350;2022-07-18T09:38:47;43.20;44.20
41668;DHT22;27356;50.920;5.350;2022-07-18T09:41:13;43.00;42.70
41668;DHT22;27356;50.920;5.350;2022-07-18T09:43:40;42.80;43.70
41668;DHT22;27356;50.920;5.350;2022-07-18T09:46:06;42.90;42.60
41668;DHT22;27356;50.920;5.350;2022-07-18T09:48:32;42.40;44.00
41668;DHT22;27356;50.920;5.350;2022-07-18T09:50:59;42.40;43.70
41668;DHT22;27356;50.920;5.350;2022-07-18T09:53:26;42.60;44.30
41668;DHT22;27356;50.920;5.350;2022-07-18T09:55:55;43.00;43.90
41668;DHT22;27356;50.920;5.350;2022-07-18T09:58:22;42.50;43.50
41668;DHT22;27356;50.920;5.350;2022-07-18T10:00:49;43.00;42.80
41668;DHT22;27356;50.920;5.350;2022-07-18T10:03:14;43.50;42.80
41668;DHT22;27356;50.920;5.350;2022-07-18T10:05:41;43.70;42.70
41668;DHT22;27356;50.920;5.350;2022-07-18T10:08:15;43.10;42.00
41668;DHT22;27356;50.920;5.350;2022-07-18T10:10:41;42.90;43.00
41668;DHT22;27356;50.920;5.350;2022-07-18T10:13:10;42.60;42.30
41668;DHT22;27356;50.920;5.350;2022-07-18T10:15:37;42.90;42.60
41668;DHT22;27356;50.920;5.350;2022-07-18T10:18:04;42.40;41.80
41668;DHT22;27356;50.920;5.350;2022-07-18T10:20:35;42.10;42.30
41668;DHT22;27356;50.920;5.350;2022-07-18T10:23:02;41.80;43.60
41668;DHT22;27356;50.920;5.350;2022-07-18T10:25:30;41.30;43.40
41668;DHT22;27356;50.920;5.350;2022-07-18T10:28:12;40.60;43.50
41668;DHT22;27356;50.920;5.350;2022-07-18T10:30:42;40.50;44.40
41668;DHT22;27356;50.920;5.350;2022-07-18T10:33:35;39.90;41.50
41668;DHT22;27356;50.920;5.350;2022-07-18T10:35:58;39.10;42.80
41668;DHT22;27356;50.920;5.350;2022-07-18T10:38:23;38.50;44.60
41668;DHT22;27356;50.920;5.350;2022-07-18T10:41:03;38.50;45.30
41668;DHT22;27356;50.920;5.350;2022-07-18T10:45:55;38.40;45.20
41668;DHT22;27356;50.920;5.350;2022-07-18T10:51:08;37.80;45.70
41668;DHT22;27356;50.920;5.350;2022-07-18T10:56:18;37.80;45.50
41668;DHT22;27356;50.920;5.350;2022-07-18T10:58:44;37.80;44.20
41668;DHT22;27356;50.920;5.350;2022-07-18T11:01:13;37.60;44.20
41668;DHT22;27356;50.920;5.350;2022-07-18T11:03:40;37.70;44.30
41668;DHT22;27356;50.920;5.350;2022-07-18T11:06:06;37.70;44.80
41668;DHT22;27356;50.920;5.350;2022-07-18T11:08:32;37.70;42.80
41668;DHT22;27356;50.920;5.350;2022-07-18T11:18:32;37.50;43.00
41668;DHT22;27356;50.920;5.350;2022-07-18T11:20:58;37.40;43.50
41668;DHT22;27356;50.920;5.350;2022-07-18T11:23:24;37.20;43.70
41668;DHT22;27356;50.920;5.350;2022-07-18T11:25:54;37.20;43.60
41668;DHT22;27356;50.920;5.350;2022-07-18T11:28:21;37.00;44.10
41668;DHT22;27356;50.920;5.350;2022-07-18T11:31:06;36.70;44.30
41668;DHT22;27356;50.920;5.350;2022-07-18T11:33:33;36.70;44.90
41668;DHT22;27356;50.920;5.350;2022-07-18T11:36:18;36.70;44.00
41668;DHT22;27356;50.920;5.350;2022-07-18T11:38:57;36.60;45.00
41668;DHT22;27356;50.920;5.350;2022-07-18T11:41:23;36.90;44.90
41668;DHT22;27356;50.920;5.350;2022-07-18T11:43:49;36.70;44.00
41668;DHT22;27356;50.920;5.350;2022-07-18T11:46:16;36.30;43.40
41668;DHT22;27356;50.920;5.350;2022-07-18T11:48:43;35.90;44.70
41668;DHT22;27356;50.920;5.350;2022-07-18T11:51:09;36.20;45.20
41668;DHT22;27356;50.920;5.350;2022-07-18T11:53:35;36.40;44.70
41668;DHT22;27356;50.920;5.350;2022-07-18T11:56:04;36.50;44.50
41668;DHT22;27356;50.920;5.350;2022-07-18T11:58:35;36.70;44.30
41668;DHT22;27356;50.920;5.350;2022-07-18T12:01:01;36.40;43.80
41668;DHT22;27356;50.920;5.350;2022-07-18T12:03:26;36.10;45.20
41668;DHT22;27356;50.920;5.350;2022-07-18T12:05:53;36.00;44.90
41668;DHT22;27356;50.920;5.350;2022-07-18T12:08:32;36.20;45.90
41668;DHT22;27356;50.920;5.350;2022-07-18T12:13:39;36.50;44.20
41668;DHT22;27356;50.920;5.350;2022-07-18T12:16:05;36.40;44.10
41668;DHT22;27356;50.920;5.350;2022-07-18T12:18:30;35.90;43.30
41668;DHT22;27356;50.920;5.350;2022-07-18T12:21:06;35.90;44.00
41668;DHT22;27356;50.920;5.350;2022-07-18T12:23:31;36.10;45.30
41668;DHT22;27356;50.920;5.350;2022-07-18T12:25:57;36.30;45.20
41668;DHT22;27356;50.920;5.350;2022-07-18T12:28:27;36.00;45.30
41668;DHT22;27356;50.920;5.350;2022-07-18T12:30:53;35.80;44.30
41668;DHT22;27356;50.920;5.350;2022-07-18T12:33:18;35.60;44.40
41668;DHT22;27356;50.920;5.350;2022-07-18T12:35:44;35.50;45.20
41668;DHT22;27356;50.920;5.350;2022-07-18T12:38:13;35.80;45.00
41668;DHT22;27356;50.920;5.350;2022-07-18T12:43:35;36.10;44.30
41668;DHT22;27356;50.920;5.350;2022-07-18T12:46:05;35.90;45.20
41668;DHT22;27356;50.920;5.350;2022-07-18T12:48:31;36.00;45.90
41668;DHT22;27356;50.920;5.350;2022-07-18T12:50:58;36.30;45.50
41668;DHT22;27356;50.920;5.350;2022-07-18T12:53:25;36.50;44.20
41668;DHT22;27356;50.920;5.350;2022-07-18T12:55:51;36.40;44.30
41668;DHT22;27356;50.920;5.350;2022-07-18T12:58:16;36.00;43.70
41668;DHT22;27356;50.920;5.350;2022-07-18T13:00:42;35.90;44.70
41668;DHT22;27356;50.920;5.350;2022-07-18T13:03:09;35.40;45.20
41668;DHT22;27356;50.920;5.350;2022-07-18T13:05:35;35.20;46.40
41668;DHT22;27356;50.920;5.350;2022-07-18T13:08:00;35.40;44.80
41668;DHT22;27356;50.920;5.350;2022-07-18T13:10:26;35.30;43.80
41668;DHT22;27356;50.920;5.350;2022-07-18T13:12:52;35.40;44.80
41668;DHT22;27356;50.920;5.350;2022-07-18T13:15:17;35.40;44.70
41668;DHT22;27356;50.920;5.350;2022-07-18T13:17:46;35.70;44.50
41668;DHT22;27356;50.920;5.350;2022-07-18T13:20:11;35.90;44.70
41668;DHT22;27356;50.920;5.350;2022-07-18T13:22:37;35.80;43.30
41668;DHT22;27356;50.920;5.350;2022-07-18T13:25:04;35.70;43.00
41668;DHT22;27356;50.920;5.350;2022-07-18T13:27:30;35.40;43.50
41668;DHT22;27356;50.920;5.350;2022-07-18T13:29:55;35.40;44.40
41668;DHT22;27356;50.920;5.350;2022-07-18T13:32:21;35.50;45.60
41668;DHT22;27356;50.920;5.350;2022-07-18T13:34:49;35.60;44.10
41668;DHT22;27356;50.920;5.350;2022-07-18T13:37:14;35.70;43.30
41668;DHT22;27356;50.920;5.350;2022-07-18T13:39:40;35.60;43.20
41668;DHT22;27356;50.920;5.350;2022-07-18T13:42:05;35.70;43.20
41668;DHT22;27356;50.920;5.350;2022-07-18T13:44:31;35.70;42.40
41668;DHT22;27356;50.920;5.350;2022-07-18T13:46:57;35.50;42.90
41668;DHT22;27356;50.920;5.350;2022-07-18T13:49:22;35.50;43.10
41668;DHT22;27356;50.920;5.350;2022-07-18T13:51:48;34.80;43.40
41668;DHT22;27356;50.920;5.350;2022-07-18T13:54:13;34.90;46.20
41668;DHT22;27356;50.920;5.350;2022-07-18T13:56:42;35.20;43.80
41668;DHT22;27356;50.920;5.350;2022-07-18T13:59:08;35.30;43.40
41668;DHT22;27356;50.920;5.350;2022-07-18T14:01:33;35.30;42.90
41668;DHT22;27356;50.920;5.350;2022-07-18T14:03:59;35.40;42.90
41668;DHT22;27356;50.920;5.350;2022-07-18T14:06:24;35.20;43.40
41668;DHT22;27356;50.920;5.350;2022-07-18T14:08:50;35.40;43.30
41668;DHT22;27356;50.920;5.350;2022-07-18T14:11:15;35.20;42.60
41668;DHT22;27356;50.920;5.350;2022-07-18T14:13:41;35.30;43.50
41668;DHT22;27356;50.920;5.350;2022-07-18T14:16:07;35.40;43.30
41668;DHT22;27356;50.920;5.350;2022-07-18T14:18:32;35.20;43.50
41668;DHT22;27356;50.920;5.350;2022-07-18T14:20:58;35.20;42.40
41668;DHT22;27356;50.920;5.350;2022-07-18T14:23:23;35.20;42.60
41668;DHT22;27356;50.920;5.350;2022-07-18T14:25:49;35.20;43.60
41668;DHT22;27356;50.920;5.350;2022-07-18T14:28:17;35.30;43.90
41668;DHT22;27356;50.920;5.350;2022-07-18T14:30:42;35.50;43.60
41668;DHT22;27356;50.920;5.350;2022-07-18T14:33:08;35.60;42.70
41668;DHT22;27356;50.920;5.350;2022-07-18T14:35:33;35.70;43.70
41668;DHT22;27356;50.920;5.350;2022-07-18T14:37:59;35.50;42.80
41668;DHT22;27356;50.920;5.350;2022-07-18T14:40:24;35.40;44.50
41668;DHT22;27356;50.920;5.350;2022-07-18T14:42:50;35.40;44.30
41668;DHT22;27356;50.920;5.350;2022-07-18T14:45:16;35.00;43.10
41668;DHT22;27356;50.920;5.350;2022-07-18T14:47:42;35.10;44.50
41668;DHT22;27356;50.920;5.350;2022-07-18T14:50:08;35.20;44.50
41668;DHT22;27356;50.920;5.350;2022-07-18T14:52:38;35.10;44.70
41668;DHT22;27356;50.920;5.350;2022-07-18T14:55:04;35.30;43.90
41668;DHT22;27356;50.920;5.350;2022-07-18T14:57:30;35.30;44.00
41668;DHT22;27356;50.920;5.350;2022-07-18T14:59:56;35.30;43.10
41668;DHT22;27356;50.920;5.350;2022-07-18T15:02:21;35.20;44.00
41668;DHT22;27356;50.920;5.350;2022-07-18T15:04:47;35.10;43.60
41668;DHT22;27356;50.920;5.350;2022-07-18T15:07:13;35.10;44.70
41668;DHT22;27356;50.920;5.350;2022-07-18T15:09:39;34.80;44.70
41668;DHT22;27356;50.920;5.350;2022-07-18T15:12:04;34.80;45.00
41668;DHT22;27356;50.920;5.350;2022-07-18T15:14:30;34.80;44.20
41668;DHT22;27356;50.920;5.350;2022-07-18T15:16:55;34.70;44.30
41668;DHT22;27356;50.920;5.350;2022-07-18T15:19:21;34.60;43.90
41668;DHT22;27356;50.920;5.350;2022-07-18T15:21:47;34.60;43.80
41668;DHT22;27356;50.920;5.350;2022-07-18T15:24:12;34.50;44.80
41668;DHT22;27356;50.920;5.350;2022-07-18T15:28:45;34.50;44.00
41668;DHT22;27356;50.920;5.350;2022-07-18T15:31:11;34.40;43.70
41668;DHT22;27356;50.920;5.350;2022-07-18T15:33:36;34.30;44.60
41668;DHT22;27356;50.920;5.350;2022-07-18T15:36:02;34.40;45.20
41668;DHT22;27356;50.920;5.350;2022-07-18T15:38:27;34.30;44.50
41668;DHT22;27356;50.920;5.350;2022-07-18T15:40:53;34.40;44.10
41668;DHT22;27356;50.920;5.350;2022-07-18T15:43:18;34.50;44.50
41668;DHT22;27356;50.920;5.350;2022-07-18T15:45:44;34.50;44.40
41668;DHT22;27356;50.920;5.350;2022-07-18T15:48:09;34.50;45.10
41668;DHT22;27356;50.920;5.350;2022-07-18T15:50:35;34.40;44.40
41668;DHT22;27356;50.920;5.350;2022-07-18T15:53:01;34.40;44.70
41668;DHT22;27356;50.920;5.350;2022-07-18T15:55:26;34.30;45.00
41668;DHT22;27356;50.920;5.350;2022-07-18T15:57:52;34.40;45.00
41668;DHT22;27356;50.920;5.350;2022-07-18T16:00:18;34.30;44.40
41668;DHT22;27356;50.920;5.350;2022-07-18T16:02:43;34.50;45.70
41668;DHT22;27356;50.920;5.350;2022-07-18T16:05:09;34.50;45.70
41668;DHT22;27356;50.920;5.350;2022-07-18T16:07:35;34.60;45.80
41668;DHT22;27356;50.920;5.350;2022-07-18T16:10:00;34.60;44.30
41668;DHT22;27356;50.920;5.350;2022-07-18T16:12:26;34.60;44.40
41668;DHT22;27356;50.920;5.350;2022-07-18T16:14:52;34.60;46.00
41668;DHT22;27356;50.920;5.350;2022-07-18T16:17:18;34.70;45.30
41668;DHT22;27356;50.920;5.350;2022-07-18T16:19:44;34.80;45.00
41668;DHT22;27356;50.920;5.350;2022-07-18T16:22:10;34.70;44.80
41668;DHT22;27356;50.920;5.350;2022-07-18T16:24:35;34.60;45.50
41668;DHT22;27356;50.920;5.350;2022-07-18T16:27:01;34.60;45.20
41668;DHT22;27356;50.920;5.350;2022-07-18T16:29:27;34.70;45.10
41668;DHT22;27356;50.920;5.350;2022-07-18T16:31:52;34.50;45.10
41668;DHT22;27356;50.920;5.350;2022-07-18T16:34:18;34.40;44.50
41668;DHT22;27356;50.920;5.350;2022-07-18T16:36:44;34.30;45.00
41668;DHT22;27356;50.920;5.350;2022-07-18T16:39:09;34.30;45.20
41668;DHT22;27356;50.920;5.350;2022-07-18T16:41:35;34.10;45.60
41668;DHT22;27356;50.920;5.350;2022-07-18T16:44:00;34.00;44.90
41668;DHT22;27356;50.920;5.350;2022-07-18T16:46:26;33.90;45.30
41668;DHT22;27356;50.920;5.350;2022-07-18T16:48:59;33.70;45.00
41668;DHT22;27356;50.920;5.350;2022-07-18T16:51:25;33.70;45.40
41668;DHT22;27356;50.920;5.350;2022-07-18T16:53:52;33.70;45.30
41668;DHT22;27356;50.920;5.350;2022-07-18T16:56:17;33.70;46.20
41668;DHT22;27356;50.920;5.350;2022-07-18T16:58:43;33.80;45.50
41668;DHT22;27356;50.920;5.350;2022-07-18T17:01:09;33.80;45.70
41668;DHT22;27356;50.920;5.350;2022-07-18T17:03:35;33.70;45.20
41668;DHT22;27356;50.920;5.350;2022-07-18T17:06:00;33.70;45.40
41668;DHT22;27356;50.920;5.350;2022-07-18T17:08:27;33.80;44.90
41668;DHT22;27356;50.920;5.350;2022-07-18T17:10:53;33.90;44.60
41668;DHT22;27356;50.920;5.350;2022-07-18T17:13:19;33.80;44.50
41668;DHT22;27356;50.920;5.350;2022-07-18T17:15:45;33.80;44.70
41668;DHT22;27356;50.920;5.350;2022-07-18T17:18:14;33.80;45.90
41668;DHT22;27356;50.920;5.350;2022-07-18T17:20:39;33.70;45.80
41668;DHT22;27356;50.920;5.350;2022-07-18T17:23:05;33.80;45.20
41668;DHT22;27356;50.920;5.350;2022-07-18T17:25:31;33.80;45.70
41668;DHT22;27356;50.920;5.350;2022-07-18T17:27:59;33.90;46.20
41668;DHT22;27356;50.920;5.350;2022-07-18T17:30:25;33.70;45.50
41668;DHT22;27356;50.920;5.350;2022-07-18T17:32:50;33.50;45.50
41668;DHT22;27356;50.920;5.350;2022-07-18T17:35:16;33.40;45.80
41668;DHT22;27356;50.920;5.350;2022-07-18T17:37:43;33.30;46.40
41668;DHT22;27356;50.920;5.350;2022-07-18T17:40:09;33.30;46.30
41668;DHT22;27356;50.920;5.350;2022-07-18T17:42:35;33.40;46.10
41668;DHT22;27356;50.920;5.350;2022-07-18T17:45:01;33.30;46.50
41668;DHT22;27356;50.920;5.350;2022-07-18T17:47:27;33.40;45.90
41668;DHT22;27356;50.920;5.350;2022-07-18T17:49:57;33.50;46.20
41668;DHT22;27356;50.920;5.350;2022-07-18T17:52:22;33.50;46.20
41668;DHT22;27356;50.920;5.350;2022-07-18T17:54:48;33.30;47.00
41668;DHT22;27356;50.920;5.350;2022-07-18T17:57:14;33.30;46.70
41668;DHT22;27356;50.920;5.350;2022-07-18T17:59:39;33.30;46.50
41668;DHT22;27356;50.920;5.350;2022-07-18T18:02:06;33.30;46.90
41668;DHT22;27356;50.920;5.350;2022-07-18T18:04:32;33.10;47.30
41668;DHT22;27356;50.920;5.350;2022-07-18T18:06:57;33.00;46.70
41668;DHT22;27356;50.920;5.350;2022-07-18T18:09:23;33.00;47.50
41668;DHT22;27356;50.920;5.350;2022-07-18T18:11:49;33.00;47.40
41668;DHT22;27356;50.920;5.350;2022-07-18T18:14:14;33.00;47.40
41668;DHT22;27356;50.920;5.350;2022-07-18T18:16:40;32.80;48.30
41668;DHT22;27356;50.920;5.350;2022-07-18T18:19:08;32.80;46.90
41668;DHT22;27356;50.920;5.350;2022-07-18T18:21:33;32.70;47.70
41668;DHT22;27356;50.920;5.350;2022-07-18T18:23:59;32.60;48.30
41668;DHT22;27356;50.920;5.350;2022-07-18T18:26:24;32.60;48.60
41668;DHT22;27356;50.920;5.350;2022-07-18T18:28:50;32.50;49.20
41668;DHT22;27356;50.920;5.350;2022-07-18T18:31:15;32.50;48.10
41668;DHT22;27356;50.920;5.350;2022-07-18T18:33:41;32.50;48.30
41668;DHT22;27356;50.920;5.350;2022-07-18T18:36:06;32.60;48.80
41668;DHT22;27356;50.920;5.350;2022-07-18T18:38:34;32.50;48.80
41668;DHT22;27356;50.920;5.350;2022-07-18T18:41:00;32.40;49.70
41668;DHT22;27356;50.920;5.350;2022-07-18T18:43:26;32.20;50.40
41668;DHT22;27356;50.920;5.350;2022-07-18T18:45:51;32.10;50.60
41668;DHT22;27356;50.920;5.350;2022-07-18T18:48:17;32.10;51.20
41668;DHT22;27356;50.920;5.350;2022-07-18T18:50:43;32.00;51.70
41668;DHT22;27356;50.920;5.350;2022-07-18T18:53:09;31.90;52.30
41668;DHT22;27356;50.920;5.350;2022-07-18T18:55:34;31.80;52.60
41668;DHT22;27356;50.920;5.350;2022-07-18T18:58:00;31.70;53.10
41668;DHT22;27356;50.920;5.350;2022-07-18T19:00:25;31.60;53.40
41668;DHT22;27356;50.920;5.350;2022-07-18T19:02:52;31.40;53.60
41668;DHT22;27356;50.920;5.350;2022-07-18T19:05:19;31.30;53.10
41668;DHT22;27356;50.920;5.350;2022-07-18T19:07:44;31.20;52.90
41668;DHT22;27356;50.920;5.350;2022-07-18T19:10:10;31.10;54.70
41668;DHT22;27356;50.920;5.350;2022-07-18T19:12:36;31.00;54.80
41668;DHT22;27356;50.920;5.350;2022-07-18T19:15:02;30.70;54.20
41668;DHT22;27356;50.920;5.350;2022-07-18T19:17:28;30.60;54.20
41668;DHT22;27356;50.920;5.350;2022-07-18T19:19:53;30.60;54.10
41668;DHT22;27356;50.920;5.350;2022-07-18T19:22:19;30.50;53.80
41668;DHT22;27356;50.920;5.350;2022-07-18T19:24:45;30.40;56.10
41668;DHT22;27356;50.920;5.350;2022-07-18T19:27:10;30.40;57.60
41668;DHT22;27356;50.920;5.350;2022-07-18T19:29:36;30.30;58.30
41668;DHT22;27356;50.920;5.350;2022-07-18T19:32:02;30.10;57.50
41668;DHT22;27356;50.920;5.350;2022-07-18T19:34:27;29.80;58.30
41668;DHT22;27356;50.920;5.350;2022-07-18T19:36:53;29.60;58.00
41668;DHT22;27356;50.920;5.350;2022-07-18T19:39:19;29.50;57.40
41668;DHT22;27356;50.920;5.350;2022-07-18T19:41:44;29.50;58.40
41668;DHT22;27356;50.920;5.350;2022-07-18T19:44:10;29.40;59.20
41668;DHT22;27356;50.920;5.350;2022-07-18T19:46:36;29.40;59.50
41668;DHT22;27356;50.920;5.350;2022-07-18T19:49:02;29.20;59.80
41668;DHT22;27356;50.920;5.350;2022-07-18T19:51:28;29.10;60.50
41668;DHT22;27356;50.920;5.350;2022-07-18T19:53:53;29.00;61.40
41668;DHT22;27356;50.920;5.350;2022-07-18T19:56:19;28.90;62.00
41668;DHT22;27356;50.920;5.350;2022-07-18T19:58:44;28.70;62.70
41668;DHT22;27356;50.920;5.350;2022-07-18T20:01:10;28.20;64.40
41668;DHT22;27356;50.920;5.350;2022-07-18T20:03:36;28.20;64.00
41668;DHT22;27356;50.920;5.350;2022-07-18T20:06:01;28.00;63.70
41668;DHT22;27356;50.920;5.350;2022-07-18T20:08:27;28.00;64.40
41668;DHT22;27356;50.920;5.350;2022-07-18T20:10:52;27.90;65.30
41668;DHT22;27356;50.920;5.350;2022-07-18T20:13:18;27.70;64.30